PWSweather.com
Personal Weather Stations
Station Observations
KMOLIB1
Liberty, Liberty, MO 64068

LibertyLiberty, MO 64068

Lat: 39.24, Lon: -94.45

Elevation: 866

Station Type:

Latest ConditionsUpdated 2:55:00 AM CDT Thursday, Jul 18, 2019
Currently Today's Max Today's Min Today's Average
Temperature 82.0°F27.8°C 83.0°F28.3°C 82.0°F27.8°C 82.6°F28.1°C
Dew Point 62.6°F17.0°C 63.5°F17.5°C 62.6°F17.0°C 63.1°F17.3°C
Winds 3.0 mph SW4.8 kmh SW 18.0 mph -29.0 kmh - - 9.7 mph 15.6 kmh
Wind Gusts 22.0 mph35.4 kmh 22.0 mph35.4 kmh - -
Humidity 52% 52% 51% 52%
Pressure 210.24 in7119.5 mb 210.28 in7120.9 mb 210.24 in7119.5 mb -
Hour Temp Dew Point Humidity Winds Wind Gusts Pressure Precip Precip Rate Daily Precip Total
02:55 AM 82.0°F27.8°C 62.6°F17.0°C 52% 3.0 mph SW4.8 kmh SW 22.0 mph35.4 kmh 210.24 in7119.5 mb 0.00 in0.0 mm 0.00 in0.0 mm 0.00 in0.0 mm
02:50 AM 82.0°F27.8°C 62.6°F17.0°C 52% 10.0 mph SW16.1 kmh SW 22.0 mph35.4 kmh 210.24 in7119.5 mb 0.00 in0.0 mm 0.00 in0.0 mm 0.00 in0.0 mm
02:45 AM 82.0°F27.8°C 62.6°F17.0°C 52% 12.0 mph SW19.3 kmh SW 22.0 mph35.4 kmh 210.24 in7119.5 mb 0.00 in0.0 mm 0.00 in0.0 mm 0.00 in0.0 mm
02:40 AM 82.0°F27.8°C 62.6°F17.0°C 52% 7.0 mph SSE11.3 kmh SSE 22.0 mph35.4 kmh 210.24 in7119.5 mb 0.00 in0.0 mm 0.00 in0.0 mm 0.00 in0.0 mm
02:35 AM 83.0°F28.3°C 62.9°F17.2°C 51% 11.0 mph SSW17.7 kmh SSW 22.0 mph35.4 kmh 210.25 in7119.9 mb 0.00 in0.0 mm 0.00 in0.0 mm 0.00 in0.0 mm
02:30 AM 83.0°F28.3°C 63.5°F17.5°C 52% 8.0 mph SW12.9 kmh SW 22.0 mph35.4 kmh 210.25 in7119.9 mb 0.00 in0.0 mm 0.00 in0.0 mm 0.00 in0.0 mm
02:25 AM 83.0°F28.3°C 62.9°F17.2°C 51% 17.0 mph SSW27.4 kmh SSW 22.0 mph35.4 kmh 210.25 in7119.9 mb 0.00 in0.0 mm 0.00 in0.0 mm 0.00 in0.0 mm
02:20 AM 83.0°F28.3°C 63.5°F17.5°C 52% 7.0 mph SW11.3 kmh SW 22.0 mph35.4 kmh 210.25 in7119.9 mb 0.00 in0.0 mm 0.00 in0.0 mm 0.00 in0.0 mm
02:15 AM 83.0°F28.3°C 63.5°F17.5°C 52% 4.0 mph SSW6.4 kmh SSW 22.0 mph35.4 kmh 210.26 in7120.2 mb 0.00 in0.0 mm 0.00 in0.0 mm 0.00 in0.0 mm
02:10 AM 83.0°F28.3°C 63.5°F17.5°C 52% 9.0 mph SSW14.5 kmh SSW 22.0 mph35.4 kmh 210.26 in7120.2 mb 0.00 in0.0 mm 0.00 in0.0 mm 0.00 in0.0 mm
02:05 AM 82.0°F27.8°C 62.6°F17.0°C 52% 10.0 mph S16.1 kmh S 22.0 mph35.4 kmh 210.27 in7120.6 mb 0.00 in0.0 mm 0.00 in0.0 mm 0.00 in0.0 mm
02:00 AM 82.0°F27.8°C 62.6°F17.0°C 52% 7.0 mph SSW11.3 kmh SSW 22.0 mph35.4 kmh 210.27 in7120.6 mb 0.00 in0.0 mm 0.00 in0.0 mm 0.00 in0.0 mm
01:55 AM 82.0°F27.8°C 62.6°F17.0°C 52% 15.0 mph SSW24.1 kmh SSW 22.0 mph35.4 kmh 210.27 in7120.6 mb 0.00 in0.0 mm 0.00 in0.0 mm 0.00 in0.0 mm
01:50 AM 82.0°F27.8°C 62.6°F17.0°C 52% 12.0 mph SW19.3 kmh SW 22.0 mph35.4 kmh 210.27 in7120.6 mb 0.00 in0.0 mm 0.00 in0.0 mm 0.00 in0.0 mm
01:45 AM 82.0°F27.8°C 62.6°F17.0°C 52% 13.0 mph S20.9 kmh S 22.0 mph35.4 kmh 210.27 in7120.6 mb 0.00 in0.0 mm 0.00 in0.0 mm 0.00 in0.0 mm
01:40 AM 82.0°F27.8°C 62.6°F17.0°C 52% 9.0 mph S14.5 kmh S 22.0 mph35.4 kmh 210.27 in7120.6 mb 0.00 in0.0 mm 0.00 in0.0 mm 0.00 in0.0 mm
01:35 AM 82.0°F27.8°C 62.6°F17.0°C 52% 10.0 mph S16.1 kmh S 22.0 mph35.4 kmh 210.27 in7120.6 mb 0.00 in0.0 mm 0.00 in0.0 mm 0.00 in0.0 mm
01:30 AM 82.0°F27.8°C 62.6°F17.0°C 52% 10.0 mph SSW16.1 kmh SSW 22.0 mph35.4 kmh 210.27 in7120.6 mb 0.00 in0.0 mm 0.00 in0.0 mm 0.00 in0.0 mm
01:25 AM 82.0°F27.8°C 62.6°F17.0°C 52% 15.0 mph SW24.1 kmh SW 22.0 mph35.4 kmh 210.27 in7120.6 mb 0.00 in0.0 mm 0.00 in0.0 mm 0.00 in0.0 mm
01:20 AM 83.0°F28.3°C 63.5°F17.5°C 52% 15.0 mph SSW24.1 kmh SSW 22.0 mph35.4 kmh 210.27 in7120.6 mb 0.00 in0.0 mm 0.00 in0.0 mm 0.00 in0.0 mm
01:15 AM 83.0°F28.3°C 63.5°F17.5°C 52% 12.0 mph SW19.3 kmh SW 22.0 mph35.4 kmh 210.28 in7120.9 mb 0.00 in0.0 mm 0.00 in0.0 mm 0.00 in0.0 mm
01:10 AM 83.0°F28.3°C 63.5°F17.5°C 52% 8.0 mph SSW12.9 kmh SSW 22.0 mph35.4 kmh 210.28 in7120.9 mb 0.00 in0.0 mm 0.00 in0.0 mm 0.00 in0.0 mm
01:05 AM 83.0°F28.3°C 63.5°F17.5°C 52% 9.0 mph S14.5 kmh S 22.0 mph35.4 kmh 210.28 in7120.9 mb 0.00 in0.0 mm 0.00 in0.0 mm 0.00 in0.0 mm
01:00 AM 83.0°F28.3°C 63.5°F17.5°C 52% 6.0 mph S9.7 kmh S 22.0 mph35.4 kmh 210.28 in7120.9 mb 0.00 in0.0 mm 0.00 in0.0 mm 0.00 in0.0 mm
12:55 AM 83.0°F28.3°C 63.5°F17.5°C 52% 10.0 mph SW16.1 kmh SW 22.0 mph35.4 kmh 210.28 in7120.9 mb 0.00 in0.0 mm 0.00 in0.0 mm 0.00 in0.0 mm
12:50 AM 83.0°F28.3°C 63.5°F17.5°C 52% 11.0 mph S17.7 kmh S 22.0 mph35.4 kmh 210.28 in7120.9 mb 0.00 in0.0 mm 0.00 in0.0 mm 0.00 in0.0 mm
12:45 AM 83.0°F28.3°C 63.5°F17.5°C 52% 12.0 mph SSW19.3 kmh SSW 22.0 mph35.4 kmh 210.28 in7120.9 mb 0.00 in0.0 mm 0.00 in0.0 mm 0.00 in0.0 mm
12:40 AM 83.0°F28.3°C 63.5°F17.5°C 52% 10.0 mph S16.1 kmh S 22.0 mph35.4 kmh 210.28 in7120.9 mb 0.00 in0.0 mm 0.00 in0.0 mm 0.00 in0.0 mm
12:35 AM 83.0°F28.3°C 63.5°F17.5°C 52% 9.0 mph SW14.5 kmh SW 22.0 mph35.4 kmh 210.28 in7120.9 mb 0.00 in0.0 mm 0.00 in0.0 mm 0.00 in0.0 mm
12:30 AM 83.0°F28.3°C 63.5°F17.5°C 52% 9.0 mph SW14.5 kmh SW 22.0 mph35.4 kmh 210.28 in7120.9 mb 0.00 in0.0 mm 0.00 in0.0 mm 0.00 in0.0 mm
12:25 AM 83.0°F28.3°C 63.5°F17.5°C 52% 18.0 mph SSE29.0 kmh SSE 22.0 mph35.4 kmh 210.27 in7120.6 mb 0.00 in0.0 mm 0.00 in0.0 mm 0.00 in0.0 mm
12:20 AM 83.0°F28.3°C 63.5°F17.5°C 52% 2.0 mph S3.2 kmh S 15.0 mph24.1 kmh 210.27 in7120.6 mb 0.00 in0.0 mm 0.00 in0.0 mm 0.00 in0.0 mm
12:15 AM 83.0°F28.3°C 63.5°F17.5°C 52% 9.0 mph SW14.5 kmh SW 15.0 mph24.1 kmh 210.27 in7120.6 mb 0.00 in0.0 mm 0.00 in0.0 mm 0.00 in0.0 mm
12:10 AM 83.0°F28.3°C 63.5°F17.5°C 52% 7.0 mph S11.3 kmh S 14.0 mph22.5 kmh 210.27 in7120.6 mb 0.00 in0.0 mm 0.00 in0.0 mm 0.00 in0.0 mm
12:05 AM 83.0°F28.3°C 63.5°F17.5°C 52% 7.0 mph S11.3 kmh S 14.0 mph22.5 kmh 210.27 in7120.6 mb 0.00 in0.0 mm 0.00 in0.0 mm 0.00 in0.0 mm
12:00 AM 83.0°F28.3°C 63.5°F17.5°C 52% 5.0 mph S8.0 kmh S 5.0 mph8.0 kmh 210.27 in7120.6 mb 0.00 in0.0 mm 0.00 in0.0 mm 0.00 in0.0 mm